Time;durP1;ratioP1;P1;durP2;ratioP2;P2;SDS_P1;SDS_P2;PMS_P1;PMS_P2;Temp;Humidity;BMP_temperature;BMP_pressure;BME280_temperature;BME280_humidity;BME280_pressure;Samples;Min_cycle;Max_cycle;Signal;HPM_P1;HPM_P2
2022/04/14 00:00:00;;;;;;;7.70;4.30;;;13.10;74.20;;;;;;4885210;29;20056;-89
2022/04/14 00:02:27;;;;;;;9.50;4.32;;;13.10;74.30;;;;;;4882747;29;20506;-88
2022/04/14 00:04:54;;;;;;;7.20;3.88;;;13.10;74.30;;;;;;4886107;29;20464;-89
2022/04/14 00:07:21;;;;;;;6.68;4.05;;;13.10;74.30;;;;;;4888863;29;20502;-88
2022/04/14 00:09:47;;;;;;;6.13;3.90;;;13.10;74.30;;;;;;4887975;29;20110;-89
2022/04/14 00:12:15;;;;;;;7.25;4.07;;;13.00;74.30;;;;;;4888827;29;20100;-89
2022/04/14 00:14:42;;;;;;;9.25;4.35;;;13.00;74.30;;;;;;4886315;29;20044;-89
2022/04/14 00:17:12;;;;;;;9.75;4.30;;;13.00;74.30;;;;;;4883757;29;20072;-89
2022/04/14 00:19:40;;;;;;;9.02;4.60;;;13.00;74.30;;;;;;4887694;29;20092;-89
2022/04/14 00:22:07;;;;;;;8.93;3.72;;;12.90;74.30;;;;;;4888536;29;20479;-89
2022/04/14 00:24:34;;;;;;;6.80;4.07;;;12.90;74.30;;;;;;4888857;29;20049;-89
2022/04/14 00:27:01;;;;;;;7.20;4.15;;;12.90;74.30;;;;;;4888521;29;20055;-89
2022/04/14 00:29:28;;;;;;;6.75;4.30;;;12.90;74.30;;;;;;4884372;29;20052;-89
2022/04/14 00:31:55;;;;;;;5.55;3.60;;;12.90;74.30;;;;;;4885630;29;20052;-89
2022/04/14 00:34:22;;;;;;;6.90;4.00;;;12.90;74.30;;;;;;4888632;29;20199;-89
2022/04/14 00:36:48;;;;;;;8.13;4.07;;;12.90;74.30;;;;;;4888266;29;20423;-88
2022/04/14 00:39:15;;;;;;;7.60;4.10;;;12.80;74.40;;;;;;4888571;29;20049;-88
2022/04/14 00:41:43;;;;;;;7.93;3.95;;;12.80;74.40;;;;;;4885880;29;20183;-89
2022/04/14 00:44:10;;;;;;;7.68;4.35;;;12.80;74.40;;;;;;4884149;29;20053;-89
2022/04/14 00:46:36;;;;;;;6.95;4.18;;;12.70;74.40;;;;;;4887546;29;20407;-89
2022/04/14 00:49:04;;;;;;;9.77;4.63;;;12.70;74.40;;;;;;4888512;29;20101;-89
2022/04/14 00:51:30;;;;;;;7.30;4.43;;;12.70;74.40;;;;;;4888028;29;20392;-89
2022/04/14 00:53:58;;;;;;;6.57;3.72;;;12.60;74.40;;;;;;4887593;29;20474;-88
2022/04/14 00:56:25;;;;;;;6.15;3.53;;;12.60;74.50;;;;;;4883995;29;20056;-89
2022/04/14 00:58:52;;;;;;;10.57;4.82;;;12.60;74.50;;;;;;4885457;29;20048;-89
2022/04/14 01:01:20;;;;;;;5.97;3.88;;;12.60;74.60;;;;;;4888284;29;20117;-88
2022/04/14 01:03:48;;;;;;;6.32;4.00;;;12.50;74.60;;;;;;4888442;29;20052;-88
2022/04/14 01:06:19;;;;;;;6.32;4.07;;;12.50;74.60;;;;;;4887828;29;20048;-89
2022/04/14 01:11:35;;;;;;;5.95;3.53;;;12.50;74.70;;;;;;4884193;29;20049;-88
2022/04/14 01:14:02;;;;;;;6.60;4.28;;;12.50;74.70;;;;;;4898563;29;20065;-89
2022/04/14 01:16:29;;;;;;;7.45;4.28;;;12.40;74.70;;;;;;4898970;29;20120;-90
2022/04/14 01:18:56;;;;;;;6.95;4.05;;;12.40;74.70;;;;;;4898279;29;20162;-88
2022/04/14 01:21:23;;;;;;;7.43;4.47;;;12.40;74.70;;;;;;4895881;29;20048;-89
2022/04/14 01:23:50;;;;;;;7.10;4.30;;;12.40;74.70;;;;;;4886169;29;20056;-89
2022/04/14 01:26:18;;;;;;;8.95;4.70;;;12.40;74.70;;;;;;4883209;29;20192;-88
2022/04/14 01:28:45;;;;;;;7.55;4.25;;;12.30;74.70;;;;;;4885905;29;20057;-89
2022/04/14 01:31:12;;;;;;;9.27;4.60;;;12.30;74.70;;;;;;4887676;29;20116;-89
2022/04/14 01:33:39;;;;;;;8.05;4.93;;;12.30;74.80;;;;;;4887345;29;20048;-88
2022/04/14 01:36:06;;;;;;;6.50;4.15;;;12.30;74.80;;;;;;4886372;29;20100;-88
2022/04/14 01:38:32;;;;;;;6.10;4.28;;;12.20;74.80;;;;;;4883512;29;20085;-88
2022/04/14 01:40:59;;;;;;;7.22;4.30;;;12.20;74.80;;;;;;4884043;29;20109;-88
2022/04/14 01:43:26;;;;;;;6.20;3.90;;;12.20;74.80;;;;;;4887389;29;20549;-88
2022/04/14 01:45:53;;;;;;;7.72;4.13;;;12.20;74.80;;;;;;4887331;29;20510;-89
2022/04/14 01:48:20;;;;;;;9.38;4.90;;;12.20;74.80;;;;;;4887029;29;20045;-88
2022/04/14 01:50:47;;;;;;;7.47;4.57;;;12.10;74.80;;;;;;4885304;29;20052;-88
2022/04/14 01:53:14;;;;;;;9.25;4.88;;;12.10;74.80;;;;;;4882982;29;20049;-89
2022/04/14 01:55:41;;;;;;;7.88;4.80;;;12.00;74.80;;;;;;4885736;29;20126;-89
2022/04/14 01:58:08;;;;;;;12.18;4.72;;;12.00;74.80;;;;;;4887200;29;20320;-89
2022/04/14 02:00:34;;;;;;;6.05;4.20;;;12.00;74.80;;;;;;4887104;29;20128;-89
2022/04/14 02:03:01;;;;;;;6.60;4.63;;;12.00;74.80;;;;;;4886509;29;20048;-89
2022/04/14 02:05:29;;;;;;;6.80;4.90;;;11.90;74.80;;;;;;4882614;29;20064;-88
2022/04/14 02:07:56;;;;;;;7.95;4.68;;;11.90;74.90;;;;;;4883845;29;20109;-88
2022/04/14 02:10:23;;;;;;;6.93;3.95;;;11.90;74.90;;;;;;4887007;29;20187;-88
2022/04/14 02:12:49;;;;;;;6.80;4.25;;;11.90;74.90;;;;;;4886795;29;20506;-88
2022/04/14 02:15:18;;;;;;;8.10;4.65;;;11.90;75.00;;;;;;4887007;29;20498;-88
2022/04/14 02:17:45;;;;;;;8.27;4.13;;;11.90;75.00;;;;;;4884210;29;20089;-89
2022/04/14 02:20:12;;;;;;;6.90;4.30;;;11.80;75.00;;;;;;4882411;29;20109;-88
2022/04/14 02:22:40;;;;;;;7.32;4.43;;;11.80;75.00;;;;;;4885666;29;20057;-87
2022/04/14 02:25:08;;;;;;;10.10;5.03;;;11.80;75.10;;;;;;4885950;29;20101;-88
2022/04/14 02:27:35;;;;;;;6.43;4.03;;;11.80;75.10;;;;;;4886685;29;20053;-89
2022/04/14 02:30:03;;;;;;;6.50;4.32;;;11.80;75.10;;;;;;4886413;29;20048;-88
2022/04/14 02:32:30;;;;;;;8.50;4.88;;;11.70;75.10;;;;;;4882201;29;20678;-87
2022/04/14 02:34:57;;;;;;;8.88;4.28;;;11.70;75.20;;;;;;4893723;29;20049;-88
2022/04/14 02:37:24;;;;;;;8.70;4.80;;;11.70;75.20;;;;;;4886688;29;20108;-88
2022/04/14 02:39:51;;;;;;;7.38;4.57;;;11.70;75.30;;;;;;4886397;29;20057;-88
2022/04/14 02:42:18;;;;;;;9.15;4.35;;;11.70;75.30;;;;;;4885384;29;20438;-88
2022/04/14 02:44:45;;;;;;;7.85;4.10;;;11.70;75.30;;;;;;4883934;29;20108;-87
2022/04/14 02:47:12;;;;;;;5.75;4.28;;;11.70;75.40;;;;;;4881786;29;20128;-87
2022/04/14 02:49:38;;;;;;;6.65;4.55;;;11.60;75.40;;;;;;4885223;29;20061;-88
2022/04/14 02:52:06;;;;;;;6.75;4.72;;;11.70;75.40;;;;;;4885151;29;20049;-88
2022/04/14 02:54:37;;;;;;;7.50;4.38;;;11.60;75.40;;;;;;4886333;29;20117;-88
2022/04/14 02:57:08;;;;;;;7.20;4.60;;;11.60;75.40;;;;;;4886343;29;20147;-88
2022/04/14 02:59:39;;;;;;;6.55;4.25;;;11.60;75.40;;;;;;4882457;29;20468;-88
2022/04/14 03:02:06;;;;;;;8.13;4.80;;;11.60;75.50;;;;;;4881738;29;20053;-88
2022/04/14 03:04:33;;;;;;;9.50;4.72;;;11.60;75.50;;;;;;4885797;29;20051;-88
2022/04/14 03:07:00;;;;;;;7.00;4.00;;;11.60;75.50;;;;;;4886140;29;20471;-88
2022/04/14 03:09:27;;;;;;;9.02;4.25;;;11.50;75.50;;;;;;4886143;29;20045;-88
2022/04/14 03:11:53;;;;;;;10.48;4.43;;;11.50;75.40;;;;;;4884719;29;20051;-88
2022/04/14 03:14:20;;;;;;;5.35;3.90;;;11.50;75.50;;;;;;4881530;29;20057;-88
2022/04/14 03:16:47;;;;;;;11.32;3.78;;;11.50;75.50;;;;;;4883681;29;20060;-88
2022/04/14 03:19:14;;;;;;;7.78;3.90;;;11.40;75.50;;;;;;4885954;29;20128;-87
2022/04/14 03:21:41;;;;;;;6.05;4.13;;;11.40;75.40;;;;;;4886095;29;20056;-88
2022/04/14 03:24:08;;;;;;;6.40;3.78;;;11.40;75.40;;;;;;4885985;29;20045;-88
2022/04/14 03:26:35;;;;;;;5.68;3.55;;;11.40;75.50;;;;;;4882272;29;20052;-88
2022/04/14 03:29:02;;;;;;;6.05;3.78;;;11.40;75.50;;;;;;4882048;29;20057;-89
2022/04/14 03:31:28;;;;;;;5.07;3.78;;;11.40;75.50;;;;;;4896259;29;20617;-88
2022/04/14 03:33:58;;;;;;;10.30;3.75;;;11.40;75.50;;;;;;4889571;29;20529;-87
2022/04/14 03:36:25;;;;;;;5.97;3.75;;;11.30;75.50;;;;;;4887456;29;20108;-87
2022/04/14 03:38:51;;;;;;;8.07;4.32;;;11.20;75.50;;;;;;4888124;29;20410;-87
2022/04/14 03:41:18;;;;;;;9.30;4.07;;;11.30;75.50;;;;;;4885176;29;20053;-87
2022/04/14 03:43:45;;;;;;;6.60;4.00;;;11.30;75.50;;;;;;4887754;29;20116;-87
2022/04/14 03:46:14;;;;;;;6.63;3.78;;;11.20;75.50;;;;;;4889260;29;20065;-88
2022/04/14 03:48:42;;;;;;;6.25;3.60;;;11.20;75.50;;;;;;4889483;29;20045;-87
2022/04/14 03:51:09;;;;;;;7.38;3.63;;;11.20;75.50;;;;;;4890067;29;20498;-89
2022/04/14 03:53:36;;;;;;;6.10;4.20;;;11.10;75.50;;;;;;4900116;29;20107;-89
2022/04/14 03:56:04;;;;;;;5.20;3.67;;;11.10;75.40;;;;;;4885131;29;20045;-88
2022/04/14 03:58:31;;;;;;;5.45;3.60;;;11.10;75.40;;;;;;4888634;29;20057;-89
2022/04/14 04:00:58;;;;;;;5.35;3.40;;;11.00;75.40;;;;;;4889174;29;20593;-88
2022/04/14 04:03:25;;;;;;;5.95;3.45;;;11.00;75.30;;;;;;4889317;29;20870;-89
2022/04/14 04:05:52;;;;;;;6.78;4.03;;;10.90;75.30;;;;;;4887693;29;20053;-88
2022/04/14 04:08:19;;;;;;;5.47;3.80;;;10.90;75.30;;;;;;4884744;29;20053;-88
2022/04/14 04:10:46;;;;;;;7.47;4.10;;;10.90;75.20;;;;;;4887344;29;20113;-89
2022/04/14 04:13:13;;;;;;;5.65;3.60;;;10.90;75.30;;;;;;4888652;29;20053;-88
2022/04/14 04:15:40;;;;;;;8.30;3.80;;;10.90;75.20;;;;;;4888996;29;20057;-88
2022/04/14 04:18:07;;;;;;;5.97;3.67;;;10.90;75.20;;;;;;4889090;29;20108;-88
2022/04/14 04:20:34;;;;;;;8.05;3.47;;;10.80;75.20;;;;;;4885344;29;20080;-87
2022/04/14 04:23:05;;;;;;;9.25;3.92;;;10.80;75.20;;;;;;4885214;29;20060;-88
2022/04/14 04:25:32;;;;;;;6.05;3.75;;;10.70;75.20;;;;;;4888404;29;20182;-88
2022/04/14 04:27:59;;;;;;;8.20;3.88;;;10.70;75.10;;;;;;4887237;29;20518;-87
2022/04/14 04:30:26;;;;;;;6.68;3.53;;;10.70;75.20;;;;;;4888813;29;20052;-88
2022/04/14 04:32:53;;;;;;;6.50;3.75;;;10.60;75.20;;;;;;4887420;29;20115;-88
2022/04/14 04:35:20;;;;;;;7.35;3.30;;;10.60;75.20;;;;;;4884090;29;20120;-87
2022/04/14 04:37:47;;;;;;;6.65;3.90;;;10.60;75.20;;;;;;4886635;29;20057;-87
2022/04/14 04:40:15;;;;;;;10.20;3.70;;;10.60;75.30;;;;;;4888570;29;20105;-88
2022/04/14 04:42:42;;;;;;;7.28;3.70;;;10.60;75.30;;;;;;4888320;29;20057;-88
2022/04/14 04:45:09;;;;;;;8.90;4.10;;;10.50;75.30;;;;;;4888481;29;20494;-89
2022/04/14 04:47:36;;;;;;;8.80;3.95;;;10.50;75.40;;;;;;4883996;29;20044;-88
2022/04/14 04:50:06;;;;;;;8.23;3.97;;;10.50;75.40;;;;;;4884369;29;20507;-88
2022/04/14 04:52:34;;;;;;;5.50;3.35;;;10.50;75.50;;;;;;4888077;29;20056;-88
2022/04/14 04:55:02;;;;;;;10.13;4.10;;;10.50;75.50;;;;;;4888284;29;20475;-88
2022/04/14 04:57:29;;;;;;;10.98;3.75;;;10.40;75.50;;;;;;4887947;29;20049;-88
2022/04/14 04:59:56;;;;;;;10.15;3.70;;;10.40;75.60;;;;;;4887101;29;20479;-88
2022/04/14 05:02:23;;;;;;;7.63;3.72;;;10.40;75.60;;;;;;4898969;29;20067;-89
2022/04/14 05:04:50;;;;;;;8.80;3.30;;;10.40;75.60;;;;;;4885808;29;20105;-88
2022/04/14 05:07:16;;;;;;;7.00;3.60;;;10.40;75.60;;;;;;4888190;29;20475;-88
2022/04/14 05:09:43;;;;;;;8.52;3.80;;;10.40;75.60;;;;;;4888221;29;20049;-89
2022/04/14 05:12:10;;;;;;;7.35;3.50;;;10.40;75.60;;;;;;4887606;29;20128;-88
2022/04/14 05:14:37;;;;;;;8.40;3.92;;;10.40;75.60;;;;;;4884404;29;20056;-88
2022/04/14 05:17:05;;;;;;;9.05;4.05;;;10.40;75.60;;;;;;4883849;29;20053;-88
2022/04/14 05:19:32;;;;;;;8.80;3.35;;;10.40;75.60;;;;;;4887281;29;20508;-87
2022/04/14 05:22:01;;;;;;;9.65;3.95;;;10.40;75.60;;;;;;4887978;29;20113;-86
2022/04/14 05:24:31;;;;;;;6.28;3.50;;;10.30;75.60;;;;;;4887770;29;20116;-87
2022/04/14 05:26:58;;;;;;;6.80;3.60;;;10.30;75.60;;;;;;4886745;29;20056;-88
2022/04/14 05:29:26;;;;;;;7.55;3.70;;;10.30;75.60;;;;;;4883355;29;20686;-88
2022/04/14 05:31:53;;;;;;;9.55;3.83;;;10.30;75.60;;;;;;4885112;29;20494;-87
2022/04/14 05:34:20;;;;;;;7.75;4.05;;;10.40;75.70;;;;;;4887794;29;20056;-88
2022/04/14 05:36:46;;;;;;;7.88;4.25;;;10.30;75.70;;;;;;4887740;29;20057;-87
2022/04/14 05:39:13;;;;;;;6.45;3.67;;;10.30;75.80;;;;;;4887636;29;20056;-88
2022/04/14 05:41:40;;;;;;;9.68;3.97;;;10.30;75.80;;;;;;4884042;29;20474;-88
2022/04/14 05:44:07;;;;;;;6.15;3.97;;;10.30;75.80;;;;;;4883225;29;20109;-88
2022/04/14 05:46:34;;;;;;;7.93;4.55;;;10.30;75.90;;;;;;4898573;29;20059;-89
2022/04/14 05:49:02;;;;;;;9.73;3.83;;;10.30;75.90;;;;;;4890580;29;20120;-88
2022/04/14 05:51:29;;;;;;;6.90;4.10;;;10.30;75.90;;;;;;4887315;29;20180;-87
2022/04/14 05:53:56;;;;;;;7.22;3.83;;;10.30;76.00;;;;;;4886119;29;20162;-88
2022/04/14 05:56:23;;;;;;;6.43;3.95;;;10.30;76.00;;;;;;4882426;29;20056;-88
2022/04/14 05:58:49;;;;;;;6.70;3.90;;;10.40;76.10;;;;;;4884879;29;20408;-88
2022/04/14 06:01:16;;;;;;;6.20;3.60;;;10.40;76.10;;;;;;4887135;29;20575;-88
2022/04/14 06:03:43;;;;;;;7.05;3.95;;;10.40;76.10;;;;;;4887212;29;20475;-88
2022/04/14 06:06:12;;;;;;;11.43;4.25;;;10.40;76.20;;;;;;4886971;29;20052;-88
2022/04/14 06:08:39;;;;;;;5.57;3.80;;;10.40;76.30;;;;;;4882641;29;20052;-86
2022/04/14 06:11:07;;;;;;;8.60;4.70;;;10.40;76.30;;;;;;4882448;29;20049;-88
2022/04/14 06:13:34;;;;;;;6.40;3.78;;;10.40;76.40;;;;;;4886291;29;20060;-88
2022/04/14 06:16:02;;;;;;;8.25;3.80;;;10.40;76.40;;;;;;4894186;29;20052;-88
2022/04/14 06:18:29;;;;;;;7.38;3.80;;;10.50;76.50;;;;;;4894587;29;20057;-88
2022/04/14 06:20:55;;;;;;;7.32;3.80;;;10.50;76.60;;;;;;4885732;29;20052;-88
2022/04/14 06:23:22;;;;;;;7.22;4.05;;;10.60;76.70;;;;;;4882057;29;20052;-87
2022/04/14 06:25:50;;;;;;;6.70;4.10;;;10.60;76.70;;;;;;4884543;29;20086;-88
2022/04/14 06:28:17;;;;;;;5.95;3.88;;;10.60;76.80;;;;;;4886746;29;20049;-88
2022/04/14 06:30:47;;;;;;;8.75;5.10;;;10.70;76.80;;;;;;4886703;29;20105;-88
2022/04/14 06:33:16;;;;;;;9.80;5.03;;;10.70;76.80;;;;;;4886675;29;20050;-87
2022/04/14 06:35:43;;;;;;;8.90;4.80;;;10.80;77.00;;;;;;4884014;29;20060;-87
2022/04/14 06:38:10;;;;;;;14.80;5.55;;;10.80;77.10;;;;;;4882057;29;20071;-87
2022/04/14 06:40:42;;;;;;;8.07;4.20;;;10.90;77.20;;;;;;4883094;29;20068;-88
2022/04/14 06:43:10;;;;;;;9.85;4.88;;;10.90;77.20;;;;;;4886579;29;20060;-88
2022/04/14 06:45:36;;;;;;;7.85;4.43;;;10.90;77.20;;;;;;4885420;29;20087;-87
2022/04/14 06:48:04;;;;;;;8.23;4.78;;;10.90;77.20;;;;;;4886269;29;20417;-88
2022/04/14 06:50:31;;;;;;;8.82;4.72;;;11.00;77.20;;;;;;4882264;29;20052;-86
2022/04/14 06:52:58;;;;;;;10.48;6.75;;;11.00;77.20;;;;;;4878734;29;20068;-87
2022/04/14 06:55:26;;;;;;;7.53;5.40;;;11.10;77.30;;;;;;4893506;29;20053;-88
2022/04/14 06:57:53;;;;;;;11.30;6.50;;;11.10;77.30;;;;;;4897020;29;20553;-87
2022/04/14 07:00:23;;;;;;;16.17;9.02;;;11.20;77.40;;;;;;4902986;29;20119;-87
2022/04/14 07:02:52;;;;;;;16.80;9.15;;;11.20;77.50;;;;;;4893079;29;20053;-88
2022/04/14 07:05:20;;;;;;;15.93;9.30;;;11.30;77.70;;;;;;4894315;29;20478;-86
2022/04/14 07:07:47;;;;;;;11.13;6.15;;;11.40;77.90;;;;;;4896614;29;20052;-87
2022/04/14 07:10:14;;;;;;;13.68;6.47;;;11.40;78.00;;;;;;4891739;29;20052;-87
2022/04/14 07:12:43;;;;;;;12.23;6.70;;;11.50;78.00;;;;;;4892466;29;20097;-87
2022/04/14 07:15:10;;;;;;;12.05;7.22;;;11.50;78.00;;;;;;4892777;29;20507;-87
2022/04/14 07:17:37;;;;;;;13.38;8.27;;;11.60;78.00;;;;;;4894338;29;20119;-88
2022/04/14 07:20:07;;;;;;;14.82;8.80;;;11.70;78.00;;;;;;4896093;29;20540;-87
2022/04/14 07:22:49;;;;;;;11.35;7.38;;;11.70;78.10;;;;;;4892959;29;20104;-88
2022/04/14 07:25:21;;;;;;;14.00;8.68;;;11.80;78.20;;;;;;4892719;29;20140;-88
2022/04/14 07:27:48;;;;;;;16.70;8.30;;;11.90;78.10;;;;;;4892890;29;20790;-88
2022/04/14 07:30:15;;;;;;;11.13;7.40;;;11.90;78.10;;;;;;4892686;29;20056;-88
2022/04/14 07:32:43;;;;;;;13.68;7.88;;;12.00;78.10;;;;;;4893239;29;20068;-87
2022/04/14 07:35:12;;;;;;;16.35;8.57;;;12.10;78.10;;;;;;4895260;29;20448;-88
2022/04/14 07:37:39;;;;;;;16.55;8.88;;;12.20;78.10;;;;;;4895585;29;20139;-87
2022/04/14 07:40:08;;;;;;;12.05;8.00;;;12.30;78.10;;;;;;4892976;29;20044;-87
2022/04/14 07:42:37;;;;;;;11.18;7.15;;;12.30;78.10;;;;;;4892671;29;20052;-87
2022/04/14 07:45:06;;;;;;;13.23;8.00;;;12.40;78.00;;;;;;4893232;29;20044;-87
2022/04/14 07:47:42;;;;;;;11.52;7.97;;;12.40;78.00;;;;;;4878322;29;20045;-87
2022/04/14 07:50:16;;;;;;;11.60;7.75;;;12.50;77.90;;;;;;4894205;29;20403;-85
2022/04/14 07:52:48;;;;;;;17.90;8.32;;;12.50;77.90;;;;;;4894369;29;20518;-87
2022/04/14 07:55:23;;;;;;;13.35;7.45;;;12.70;77.80;;;;;;4894093;29;20569;-87
2022/04/14 07:57:52;;;;;;;13.55;7.45;;;12.70;77.70;;;;;;4892699;29;20060;-87
2022/04/14 08:00:20;;;;;;;15.43;9.00;;;12.80;77.70;;;;;;4892387;29;20052;-88
2022/04/14 08:02:53;;;;;;;11.88;7.97;;;12.90;77.60;;;;;;4892890;29;20057;-88
2022/04/14 08:05:36;;;;;;;15.82;9.50;;;12.90;77.50;;;;;;4894359;29;20045;-87
2022/04/14 08:08:08;;;;;;;11.52;7.32;;;13.00;77.40;;;;;;4892865;29;20061;-87
2022/04/14 08:10:35;;;;;;;12.25;7.25;;;13.10;77.40;;;;;;4895516;29;20052;-88
2022/04/14 08:13:03;;;;;;;13.45;7.55;;;13.20;77.30;;;;;;4892311;29;20052;-88
2022/04/14 08:15:32;;;;;;;10.85;7.28;;;13.20;77.20;;;;;;4893911;29;20528;-87
2022/04/14 08:17:59;;;;;;;11.13;7.20;;;13.30;77.10;;;;;;4892814;29;20044;-87
2022/04/14 08:20:27;;;;;;;13.02;8.07;;;13.40;77.00;;;;;;4893481;29;20113;-88
2022/04/14 08:22:56;;;;;;;14.38;7.50;;;13.40;76.90;;;;;;4896790;29;20056;-89
2022/04/14 08:25:32;;;;;;;11.70;7.70;;;13.50;76.80;;;;;;4895663;29;20053;-90
2022/04/14 08:28:02;;;;;;;10.15;6.30;;;13.50;76.80;;;;;;4895947;29;20112;-88
2022/04/14 08:30:31;;;;;;;12.38;7.63;;;13.60;76.70;;;;;;4896054;29;20135;-88
2022/04/14 08:33:01;;;;;;;10.85;6.75;;;13.70;76.60;;;;;;4895975;29;20055;-89
2022/04/14 08:35:31;;;;;;;13.60;6.85;;;13.80;76.50;;;;;;4896211;29;20056;-89
2022/04/14 08:38:01;;;;;;;11.07;6.88;;;13.90;76.40;;;;;;4899613;29;20048;-88
2022/04/14 08:40:34;;;;;;;13.40;6.88;;;13.90;76.30;;;;;;4897469;29;20056;-89
2022/04/14 08:43:09;;;;;;;10.18;6.30;;;14.00;76.20;;;;;;4895613;29;20079;-89
2022/04/14 08:45:47;;;;;;;9.20;5.82;;;14.10;76.00;;;;;;4895767;29;20044;-89
2022/04/14 08:48:15;;;;;;;10.57;6.20;;;14.20;75.80;;;;;;4895562;29;20049;-87
2022/04/14 08:50:44;;;;;;;8.45;5.88;;;14.30;75.70;;;;;;4895379;29;20053;-89
2022/04/14 08:53:11;;;;;;;12.82;5.93;;;14.40;75.50;;;;;;4896666;29;20097;-88
2022/04/14 08:55:42;;;;;;;10.60;6.20;;;14.40;75.40;;;;;;4897320;29;20728;-88
2022/04/14 08:58:14;;;;;;;10.05;6.18;;;14.50;75.20;;;;;;4895177;29;20056;-89
2022/04/14 09:00:41;;;;;;;8.70;5.50;;;14.60;75.10;;;;;;4895183;29;20462;-88
2022/04/14 09:03:29;;;;;;;9.48;5.90;;;14.70;74.90;;;;;;4894785;29;20072;-88
2022/04/14 09:05:56;;;;;;;10.07;5.32;;;14.80;74.70;;;;;;4895216;29;20087;-88
2022/04/14 09:08:22;;;;;;;11.32;5.95;;;14.90;74.60;;;;;;4896320;29;20068;-88
2022/04/14 09:10:50;;;;;;;8.85;5.53;;;15.00;74.40;;;;;;4897836;29;20463;-88
2022/04/14 09:13:20;;;;;;;9.07;5.47;;;15.10;74.20;;;;;;4896186;29;20109;-89
2022/04/14 09:15:48;;;;;;;7.70;4.85;;;15.20;74.00;;;;;;4894905;29;20058;-89
2022/04/14 09:18:16;;;;;;;8.43;4.60;;;15.30;73.80;;;;;;4894388;29;20051;-88
2022/04/14 09:20:48;;;;;;;10.02;4.82;;;15.30;73.60;;;;;;4896735;29;20522;-89
2022/04/14 09:23:21;;;;;;;8.48;4.55;;;15.40;73.40;;;;;;4897414;29;20049;-88
2022/04/14 09:25:52;;;;;;;6.68;3.63;;;15.50;73.20;;;;;;4897456;29;20060;-89
2022/04/14 09:28:20;;;;;;;8.35;4.38;;;15.60;73.00;;;;;;4896159;29;20049;-88
2022/04/14 09:31:10;;;;;;;7.95;4.35;;;15.80;72.70;;;;;;4894754;29;20471;-88
2022/04/14 09:33:46;;;;;;;9.68;4.03;;;15.90;72.40;;;;;;4895392;29;20084;-88
2022/04/14 09:36:21;;;;;;;8.10;4.07;;;15.90;72.10;;;;;;4894523;29;20049;-89
2022/04/14 09:38:53;;;;;;;6.65;3.40;;;16.00;71.90;;;;;;4894877;29;20105;-90
2022/04/14 09:41:40;;;;;;;6.72;3.60;;;16.10;71.60;;;;;;4896226;29;20120;-91
2022/04/14 09:44:09;;;;;;;7.45;3.75;;;16.30;71.40;;;;;;4879347;29;20085;-89
2022/04/14 09:46:37;;;;;;;7.57;3.45;;;16.30;71.30;;;;;;4897136;29;20049;-90
2022/04/14 09:49:13;;;;;;;7.78;3.53;;;16.40;71.10;;;;;;4894126;29;20579;-90
2022/04/14 09:51:50;;;;;;;8.60;3.53;;;16.60;70.80;;;;;;4894373;29;20502;-88
2022/04/14 09:54:19;;;;;;;6.35;3.15;;;16.70;70.50;;;;;;4894392;29;20498;-90
2022/04/14 09:56:52;;;;;;;7.45;3.17;;;16.80;70.20;;;;;;4894395;29;20053;-89
2022/04/14 09:59:28;;;;;;;6.25;2.65;;;16.90;69.90;;;;;;4896472;29;20570;-89
2022/04/14 10:02:13;;;;;;;6.38;2.75;;;17.00;69.60;;;;;;4897200;29;20101;-90
2022/04/14 10:04:43;;;;;;;5.43;2.80;;;17.20;69.30;;;;;;4897789;29;20049;-88
2022/04/14 10:07:15;;;;;;;5.80;2.42;;;17.30;69.00;;;;;;4894237;29;20056;-90
2022/04/14 10:09:50;;;;;;;5.93;2.40;;;17.40;68.80;;;;;;4894072;29;20096;-89
2022/04/14 10:12:20;;;;;;;6.32;2.20;;;17.50;68.40;;;;;;4895219;29;20057;-90
2022/04/14 10:14:56;;;;;;;6.10;2.20;;;17.50;68.10;;;;;;4895212;29;20740;-89
2022/04/14 10:17:25;;;;;;;4.38;2.03;;;17.70;67.80;;;;;;4895317;29;20103;-89
2022/04/14 10:19:53;;;;;;;8.52;1.90;;;17.70;67.40;;;;;;4896976;29;20049;-89
2022/04/14 10:22:20;;;;;;;6.80;1.98;;;17.90;67.00;;;;;;4893719;29;20060;-88
2022/04/14 10:24:47;;;;;;;5.30;1.83;;;17.90;66.70;;;;;;4893627;29;20053;-89
2022/04/14 10:27:16;;;;;;;4.68;1.77;;;17.90;66.30;;;;;;4893876;29;20058;-89
2022/04/14 10:29:44;;;;;;;6.20;1.58;;;18.00;66.00;;;;;;4893711;29;20044;-90
2022/04/14 10:32:11;;;;;;;5.20;1.77;;;18.10;65.80;;;;;;4895871;29;20112;-89
2022/04/14 10:34:39;;;;;;;4.03;1.38;;;18.10;65.60;;;;;;4895380;29;20506;-89
2022/04/14 10:37:08;;;;;;;5.10;1.25;;;18.20;65.50;;;;;;4893693;29;20056;-89
2022/04/14 10:39:39;;;;;;;4.35;1.10;;;18.20;65.20;;;;;;4893537;29;20040;-89
2022/04/14 10:42:09;;;;;;;5.22;1.30;;;18.20;65.00;;;;;;4893752;29;20049;-88
2022/04/14 10:44:50;;;;;;;3.45;1.13;;;18.30;64.90;;;;;;4892756;29;20092;-90
2022/04/14 10:47:53;;;;;;;3.83;1.00;;;18.30;64.50;;;;;;4895670;29;20067;-90
2022/04/14 10:50:22;;;;;;;2.90;1.17;;;18.40;64.30;;;;;;4893562;29;20059;-88
2022/04/14 10:53:06;;;;;;;2.80;1.08;;;18.40;64.00;;;;;;4897243;29;20357;-89
2022/04/14 10:55:44;;;;;;;5.53;0.98;;;18.40;63.80;;;;;;4895511;29;20060;-89
2022/04/14 10:58:40;;;;;;;2.22;0.73;;;18.40;63.60;;;;;;4893147;29;20048;-88
2022/04/14 11:01:12;;;;;;;3.38;1.08;;;18.40;63.50;;;;;;4892685;29;20056;-89
2022/04/14 11:03:55;;;;;;;2.03;0.75;;;18.40;63.50;;;;;;4894713;29;20108;-88
2022/04/14 11:06:40;;;;;;;2.88;0.90;;;18.40;63.40;;;;;;4893070;29;20111;-88
2022/04/14 11:09:27;;;;;;;2.65;0.77;;;18.40;63.30;;;;;;4893185;29;20056;-89
2022/04/14 11:12:01;;;;;;;3.45;1.13;;;18.50;63.10;;;;;;4894509;29;20514;-88
2022/04/14 11:14:28;;;;;;;;;;;18.50;63.00;;;;;;4894717;29;20425;-88
2022/04/14 11:16:55;;;;;;;1.48;0.70;;;18.60;62.90;;;;;;4897083;29;20437;-89
2022/04/14 11:19:22;;;;;;;2.38;0.82;;;18.70;62.80;;;;;;4893115;29;20175;-88
2022/04/14 11:21:58;;;;;;;1.45;0.60;;;18.80;62.70;;;;;;4893065;29;20056;-89
2022/04/14 11:24:40;;;;;;;2.35;0.80;;;18.90;62.50;;;;;;4892855;29;20127;-89
2022/04/14 11:27:13;;;;;;;3.03;0.63;;;19.00;62.20;;;;;;4893160;29;20051;-89
2022/04/14 11:29:44;;;;;;;2.70;0.70;;;19.10;61.90;;;;;;4894285;29;20056;-90
2022/04/14 11:32:13;;;;;;;1.85;0.60;;;19.10;61.50;;;;;;4895225;29;20506;-90
2022/04/14 11:35:16;;;;;;;3.45;0.77;;;19.30;61.20;;;;;;4896931;29;20630;-88
2022/04/14 11:37:45;;;;;;;1.70;0.60;;;19.30;60.80;;;;;;4894849;29;20403;-88
2022/04/14 11:40:17;;;;;;;2.72;0.70;;;19.40;60.60;;;;;;4892760;29;20052;-89
2022/04/14 11:42:58;;;;;;;2.53;0.65;;;19.40;60.50;;;;;;4892426;29;20117;-88
2022/04/14 11:45:28;;;;;;;2.85;0.60;;;19.40;60.20;;;;;;4892638;29;20060;-89
2022/04/14 11:48:00;;;;;;;1.77;0.63;;;19.40;60.10;;;;;;4893085;29;20075;-90
2022/04/14 11:50:28;;;;;;;3.10;0.77;;;19.50;60.00;;;;;;4893662;29;20045;-89
2022/04/14 11:53:03;;;;;;;1.52;0.60;;;19.50;59.90;;;;;;4896222;29;20052;-89
2022/04/14 11:55:40;;;;;;;0.85;0.50;;;19.50;59.90;;;;;;4894851;29;20056;-89
2022/04/14 11:58:09;;;;;;;1.67;0.50;;;19.50;59.80;;;;;;4895151;29;20132;-89
2022/04/14 12:00:43;;;;;;;1.70;0.65;;;19.50;59.70;;;;;;4896500;29;20565;-89
2022/04/14 12:03:10;;;;;;;;;;;19.50;59.70;;;;;;4896559;29;20048;-89
2022/04/14 12:05:37;;;;;;;2.47;0.70;;;19.50;59.70;;;;;;4896663;29;20376;-89
2022/04/14 12:08:09;;;;;;;2.30;0.82;;;19.50;59.70;;;;;;4899955;29;20048;-91
2022/04/14 12:10:36;;;;;;;1.58;0.60;;;19.50;59.70;;;;;;4897985;29;20075;-88
2022/04/14 12:13:09;;;;;;;2.47;0.73;;;19.50;59.80;;;;;;4895581;29;20104;-91
2022/04/14 12:15:36;;;;;;;1.52;0.65;;;19.50;59.80;;;;;;4895942;29;20048;-89
2022/04/14 12:18:11;;;;;;;2.90;0.90;;;19.50;59.80;;;;;;4896081;29;20131;-88
2022/04/14 12:20:43;;;;;;;3.42;0.70;;;19.60;59.90;;;;;;4882219;29;20041;-90
2022/04/14 12:23:11;;;;;;;1.75;0.70;;;19.50;59.90;;;;;;4898334;29;20048;-89
2022/04/14 12:25:39;;;;;;;2.17;0.80;;;19.50;59.90;;;;;;4896874;29;20053;-89
2022/04/14 12:28:07;;;;;;;3.10;0.73;;;19.50;59.90;;;;;;4891475;29;20049;-89
2022/04/14 12:30:41;;;;;;;2.40;0.88;;;19.50;59.90;;;;;;4895086;29;20048;-90
2022/04/14 12:33:09;;;;;;;2.58;0.70;;;19.50;60.00;;;;;;4907171;29;20052;-90
2022/04/14 12:35:43;;;;;;;2.20;0.80;;;19.50;60.00;;;;;;4895569;29;20108;-90
2022/04/14 12:38:28;;;;;;;2.95;0.80;;;19.50;60.00;;;;;;4897893;29;20101;-89
2022/04/14 12:41:04;;;;;;;2.55;0.77;;;19.50;60.00;;;;;;4898714;29;20053;-90
2022/04/14 12:43:41;;;;;;;2.92;0.90;;;19.50;60.00;;;;;;4896463;29;20120;-89
2022/04/14 12:46:22;;;;;;;2.85;0.80;;;19.60;60.10;;;;;;4895499;29;20112;-90
2022/04/14 12:49:02;;;;;;;2.13;0.55;;;19.60;60.00;;;;;;4896801;29;20092;-89
2022/04/14 12:51:54;;;;;;;2.03;0.63;;;19.60;59.90;;;;;;4895226;29;20524;-89
2022/04/14 12:54:23;;;;;;;2.22;0.77;;;19.60;59.90;;;;;;4898769;29;20475;-91
2022/04/14 12:56:58;;;;;;;3.30;0.75;;;19.70;59.80;;;;;;4895089;29;20050;-90
2022/04/14 12:59:25;;;;;;;3.90;0.93;;;19.70;59.80;;;;;;4896983;29;20064;-89